Time;durP1;ratioP1;P1;durP2;ratioP2;P2;SDS_P1;SDS_P2;PMS_P1;PMS_P2;Temp;Humidity;BMP_temperature;BMP_pressure;BME280_temperature;BME280_humidity;BME280_pressure;Samples;Min_cycle;Max_cycle;Signal;HPM_P1;HPM_P2
2023/05/25 00:00:26;;;;;;;4.03;3.43;;;20.60;46.80;;;;;;5007703;28;20222;-73
2023/05/25 00:02:53;;;;;;;3.93;3.63;;;20.60;46.80;;;;;;5007937;28;20232;-72
2023/05/25 00:05:19;;;;;;;3.77;3.50;;;20.60;46.80;;;;;;5008825;28;20487;-73
2023/05/25 00:07:45;;;;;;;4.17;3.70;;;20.60;47.60;;;;;;4997350;28;20514;-73
2023/05/25 00:10:11;;;;;;;3.53;3.33;;;20.60;46.80;;;;;;5004947;28;20974;-73
2023/05/25 00:12:37;;;;;;;3.50;3.30;;;20.60;46.80;;;;;;5001981;28;20667;-73
2023/05/25 00:15:05;;;;;;;3.50;3.30;;;20.60;46.80;;;;;;5000179;28;20659;-70
2023/05/25 00:17:30;;;;;;;3.33;3.10;;;20.60;46.80;;;;;;5005242;28;20234;-70
2023/05/25 00:20:07;;;;;;;3.30;3.10;;;20.60;46.80;;;;;;5014327;28;20460;-72
2023/05/25 00:22:34;;;;;;;3.53;3.23;;;20.60;46.80;;;;;;5009447;28;20233;-72
2023/05/25 00:25:00;;;;;;;3.87;3.67;;;20.60;46.80;;;;;;5001042;28;20969;-73
2023/05/25 00:27:25;;;;;;;4.10;3.80;;;20.60;46.80;;;;;;4990856;28;20501;-73
2023/05/25 00:29:51;;;;;;;3.93;3.63;;;20.60;46.80;;;;;;4994160;28;20218;-73
2023/05/25 00:32:17;;;;;;;3.70;3.43;;;20.60;46.80;;;;;;4992132;28;20232;-71
2023/05/25 00:34:43;;;;;;;2.90;2.70;;;20.60;46.80;;;;;;4996235;28;20222;-73
2023/05/25 00:37:08;;;;;;;4.27;3.80;;;20.60;46.80;;;;;;4997571;28;20492;-72
2023/05/25 00:39:34;;;;;;;3.50;3.30;;;20.60;46.80;;;;;;5002810;28;20226;-73
2023/05/25 00:42:01;;;;;;;3.57;3.37;;;20.60;46.90;;;;;;5004269;28;20699;-72
2023/05/25 00:44:27;;;;;;;3.00;2.80;;;20.60;47.00;;;;;;4999198;28;20224;-73
2023/05/25 00:46:53;;;;;;;3.13;2.93;;;20.60;46.80;;;;;;4993500;28;20455;-73
2023/05/25 00:49:21;;;;;;;3.00;2.70;;;20.60;46.80;;;;;;5004636;28;20219;-73
2023/05/25 00:51:47;;;;;;;3.50;3.23;;;20.60;46.80;;;;;;4997662;28;20228;-72
2023/05/25 00:54:14;;;;;;;3.27;3.07;;;20.60;46.80;;;;;;5000348;28;20458;-73
2023/05/25 00:56:45;;;;;;;3.40;3.20;;;20.60;46.90;;;;;;4996752;28;20444;-72
2023/05/25 00:59:15;;;;;;;3.30;3.10;;;20.60;46.90;;;;;;5013388;28;20430;-72
2023/05/25 01:01:43;;;;;;;3.27;2.97;;;20.60;47.00;;;;;;5005330;28;20771;-73
2023/05/25 01:04:12;;;;;;;3.23;3.03;;;20.60;46.90;;;;;;5003231;28;20435;-72
2023/05/25 01:06:42;;;;;;;3.83;3.53;;;20.60;46.90;;;;;;5009469;28;20456;-73
2023/05/25 01:09:09;;;;;;;3.30;3.10;;;20.60;46.90;;;;;;4999252;28;20773;-73
2023/05/25 01:11:37;;;;;;;2.80;2.60;;;20.60;46.90;;;;;;5030561;28;20534;-73
2023/05/25 01:14:03;;;;;;;3.13;2.93;;;20.60;47.00;;;;;;5004710;28;20464;-72
2023/05/25 01:16:29;;;;;;;3.40;3.13;;;20.60;46.90;;;;;;5003741;28;20474;-73
2023/05/25 01:18:55;;;;;;;3.30;3.10;;;20.60;46.90;;;;;;4998476;28;20453;-73
2023/05/25 01:21:27;;;;;;;3.03;2.83;;;20.60;46.90;;;;;;4990838;28;20686;-73
2023/05/25 01:24:04;;;;;;;3.00;2.80;;;20.60;46.90;;;;;;5011164;28;20346;-71
2023/05/25 01:26:35;;;;;;;2.90;2.70;;;20.60;46.90;;;;;;5001889;28;21048;-73
2023/05/25 01:29:03;;;;;;;2.90;2.70;;;20.60;46.90;;;;;;5001036;28;20535;-70
2023/05/25 01:31:29;;;;;;;3.20;2.90;;;20.60;46.90;;;;;;5000870;28;20467;-73
2023/05/25 01:33:55;;;;;;;3.47;3.27;;;20.60;47.00;;;;;;4999720;28;21071;-73
2023/05/25 01:36:21;;;;;;;2.63;2.53;;;20.60;47.00;;;;;;5000862;28;20487;-73
2023/05/25 01:38:47;;;;;;;3.10;2.90;;;20.60;46.90;;;;;;5000849;28;20523;-73
2023/05/25 01:41:13;;;;;;;3.53;3.33;;;20.60;46.90;;;;;;4999444;28;20322;-70
2023/05/25 01:43:39;;;;;;;3.30;3.10;;;20.60;47.00;;;;;;5007470;28;20457;-73
2023/05/25 01:46:35;;;;;;;3.57;3.37;;;20.60;47.00;;;;;;5003877;28;20239;-73
2023/05/25 01:49:22;;;;;;;3.07;2.87;;;20.60;47.00;;;;;;5009164;28;20855;-74
2023/05/25 01:52:03;;;;;;;3.03;2.83;;;20.60;46.90;;;;;;5008686;28;20966;-73
2023/05/25 01:54:43;;;;;;;2.93;2.73;;;20.60;46.90;;;;;;5006670;28;20610;-73
2023/05/25 01:57:12;;;;;;;3.50;3.23;;;20.60;46.90;;;;;;4996871;28;20986;-72
2023/05/25 01:59:41;;;;;;;3.37;3.07;;;20.60;47.00;;;;;;5003534;28;20423;-73
2023/05/25 02:02:07;;;;;;;3.17;2.93;;;20.60;47.00;;;;;;5007181;28;20464;-73
2023/05/25 02:04:34;;;;;;;3.37;3.17;;;20.60;47.00;;;;;;5010129;28;20438;-73
2023/05/25 02:07:00;;;;;;;3.00;2.80;;;20.60;46.90;;;;;;5009012;28;20434;-73
2023/05/25 02:09:25;;;;;;;3.20;3.00;;;20.60;46.90;;;;;;5012432;28;20430;-73
2023/05/25 02:11:51;;;;;;;3.17;2.97;;;20.60;47.00;;;;;;5002083;28;20962;-73
2023/05/25 02:14:16;;;;;;;3.13;2.93;;;20.60;47.00;;;;;;5001658;28;20253;-73
2023/05/25 02:16:44;;;;;;;2.90;2.70;;;20.60;47.00;;;;;;4993911;28;20615;-73
2023/05/25 02:19:11;;;;;;;3.17;2.97;;;20.60;47.00;;;;;;5007916;28;20585;-73
2023/05/25 02:21:37;;;;;;;2.80;2.60;;;20.60;46.90;;;;;;4999267;28;21029;-74
2023/05/25 02:24:02;;;;;;;3.20;2.90;;;20.60;47.00;;;;;;4994171;28;20455;-73
2023/05/25 02:26:28;;;;;;;3.00;2.80;;;20.60;47.00;;;;;;5004990;28;20226;-73
2023/05/25 02:28:53;;;;;;;2.90;2.70;;;20.60;47.00;;;;;;4992370;28;20632;-73
2023/05/25 02:31:20;;;;;;;3.10;2.90;;;20.60;47.70;;;;;;4996852;28;21282;-73
2023/05/25 02:33:45;;;;;;;2.70;2.50;;;20.60;47.00;;;;;;5002763;28;20215;-73
2023/05/25 02:36:11;;;;;;;3.17;2.90;;;20.60;46.90;;;;;;5006988;28;20460;-73
2023/05/25 02:38:36;;;;;;;3.07;2.87;;;20.50;46.90;;;;;;5002972;28;20231;-73
2023/05/25 02:41:02;;;;;;;3.20;2.90;;;20.60;46.90;;;;;;4988761;28;20635;-70
2023/05/25 02:43:27;;;;;;;2.80;2.70;;;20.60;46.90;;;;;;4998684;28;20257;-73
2023/05/25 02:45:53;;;;;;;2.40;2.30;;;20.50;46.80;;;;;;4992009;28;20214;-72
2023/05/25 02:48:18;;;;;;;2.43;2.33;;;20.60;46.90;;;;;;5000049;28;20590;-72
2023/05/25 02:50:44;;;;;;;2.50;2.30;;;20.50;47.70;;;;;;5014894;28;20329;-70
2023/05/25 02:53:10;;;;;;;2.90;2.70;;;20.50;46.90;;;;;;5005968;28;20912;-72
2023/05/25 02:55:39;;;;;;;2.80;2.60;;;20.50;46.90;;;;;;4994143;28;20223;-73
2023/05/25 02:58:04;;;;;;;2.90;2.70;;;20.50;46.90;;;;;;5004724;28;20524;-70
2023/05/25 03:00:30;;;;;;;3.20;3.00;;;20.50;47.60;;;;;;5005098;28;20983;-72
2023/05/25 03:02:56;;;;;;;2.93;2.73;;;20.60;46.90;;;;;;5013650;28;20237;-73
2023/05/25 03:05:21;;;;;;;2.57;2.37;;;20.60;46.90;;;;;;4993794;28;20711;-73
2023/05/25 03:07:47;;;;;;;2.77;2.67;;;20.50;46.80;;;;;;5000432;28;20749;-71
2023/05/25 03:10:13;;;;;;;2.87;2.67;;;20.50;46.90;;;;;;5002964;28;20249;-73
2023/05/25 03:12:41;;;;;;;2.90;2.70;;;20.50;46.80;;;;;;5004380;28;20460;-74
2023/05/25 03:15:08;;;;;;;2.90;2.70;;;20.50;46.90;;;;;;5008787;28;21039;-72
2023/05/25 03:17:33;;;;;;;2.60;2.40;;;20.50;46.90;;;;;;5011754;28;20480;-74
2023/05/25 03:19:59;;;;;;;2.77;2.57;;;20.50;46.80;;;;;;5009485;28;20517;-72
2023/05/25 03:22:25;;;;;;;3.23;3.00;;;20.50;46.90;;;;;;5001529;28;20735;-73
2023/05/25 03:24:50;;;;;;;2.43;2.33;;;20.50;46.80;;;;;;5005929;28;20242;-72
2023/05/25 03:27:16;;;;;;;2.70;2.50;;;20.50;46.90;;;;;;4997115;28;20494;-73
2023/05/25 03:29:41;;;;;;;2.87;2.70;;;20.50;46.90;;;;;;5006200;28;20710;-73
2023/05/25 03:32:07;;;;;;;2.80;2.60;;;20.50;46.80;;;;;;5007578;28;20234;-71
2023/05/25 03:34:34;;;;;;;2.70;2.50;;;20.50;46.80;;;;;;5015765;28;20227;-71
2023/05/25 03:36:59;;;;;;;2.80;2.60;;;20.50;46.90;;;;;;5014002;28;20272;-73
2023/05/25 03:39:25;;;;;;;3.20;3.00;;;20.50;46.80;;;;;;5000093;28;20991;-72
2023/05/25 03:41:50;;;;;;;2.67;2.50;;;20.50;46.80;;;;;;4995347;28;20219;-73
2023/05/25 03:44:16;;;;;;;2.43;2.33;;;20.50;46.80;;;;;;5009171;28;20229;-73
2023/05/25 03:46:41;;;;;;;2.77;2.57;;;20.50;46.80;;;;;;5004801;28;20231;-71
2023/05/25 03:49:12;;;;;;;3.03;2.83;;;20.50;46.80;;;;;;5001448;28;20228;-73
2023/05/25 03:51:38;;;;;;;2.50;2.40;;;20.50;46.80;;;;;;4997512;28;20757;-73
2023/05/25 03:54:03;;;;;;;2.73;2.53;;;20.50;46.80;;;;;;5004941;28;20490;-73
2023/05/25 03:56:30;;;;;;;2.63;2.43;;;20.50;46.90;;;;;;4998832;28;20701;-70
2023/05/25 03:58:55;;;;;;;3.13;2.93;;;20.50;46.80;;;;;;5005667;28;20242;-74
2023/05/25 04:01:21;;;;;;;2.80;2.60;;;20.50;46.90;;;;;;5003805;28;20833;-73
2023/05/25 04:03:46;;;;;;;3.77;2.60;;;20.50;46.80;;;;;;5000833;28;20263;-72
2023/05/25 04:06:12;;;;;;;2.77;2.53;;;20.50;46.80;;;;;;5003369;28;20281;-76
2023/05/25 04:08:39;;;;;;;2.93;2.73;;;20.50;46.80;;;;;;5001905;28;20294;-76
2023/05/25 04:11:05;;;;;;;2.50;2.40;;;20.50;46.80;;;;;;5002906;28;20309;-76
2023/05/25 04:13:34;;;;;;;2.70;2.50;;;20.50;46.80;;;;;;5010816;28;20522;-73
2023/05/25 04:16:00;;;;;;;3.00;2.80;;;20.50;46.70;;;;;;4991170;28;20215;-73
2023/05/25 04:18:25;;;;;;;2.40;2.20;;;20.60;46.70;;;;;;4997097;28;20844;-71
2023/05/25 04:20:51;;;;;;;2.53;2.40;;;20.60;46.70;;;;;;5001590;28;20242;-72
2023/05/25 04:23:18;;;;;;;2.37;2.27;;;20.60;46.70;;;;;;5001095;28;20238;-70
2023/05/25 04:25:44;;;;;;;2.70;2.50;;;20.60;46.70;;;;;;5014422;28;20323;-73
2023/05/25 04:28:11;;;;;;;2.50;2.30;;;20.60;46.60;;;;;;5008740;28;20438;-76
2023/05/25 04:30:36;;;;;;;2.53;2.43;;;20.60;46.60;;;;;;4997130;28;20253;-70
2023/05/25 04:33:02;;;;;;;2.60;2.40;;;20.60;46.60;;;;;;4995028;28;20469;-73
2023/05/25 04:35:28;;;;;;;2.90;2.70;;;20.60;46.50;;;;;;4994900;28;20230;-71
2023/05/25 04:37:53;;;;;;;5.10;2.50;;;20.60;46.50;;;;;;4990443;28;20239;-71
2023/05/25 04:40:20;;;;;;;2.80;2.60;;;20.60;46.60;;;;;;4988796;28;20555;-73
2023/05/25 04:42:46;;;;;;;3.90;2.53;;;20.60;46.60;;;;;;4997590;28;20588;-73
2023/05/25 04:45:16;;;;;;;3.80;2.40;;;20.60;46.60;;;;;;5003452;28;20806;-73
2023/05/25 04:47:42;;;;;;;2.70;2.50;;;20.60;46.60;;;;;;4996196;28;20432;-73
2023/05/25 04:50:09;;;;;;;5.40;2.47;;;20.60;46.50;;;;;;4995534;28;20506;-73
2023/05/25 04:52:35;;;;;;;2.30;2.20;;;20.60;46.60;;;;;;5003607;28;20481;-74
2023/05/25 04:55:01;;;;;;;2.70;2.50;;;20.60;46.60;;;;;;5007545;28;20527;-74
2023/05/25 04:57:27;;;;;;;2.87;2.67;;;20.60;46.60;;;;;;5010523;28;20485;-71
2023/05/25 04:59:53;;;;;;;2.60;2.17;;;20.60;46.60;;;;;;5028956;28;20464;-73
2023/05/25 05:02:19;;;;;;;2.40;2.30;;;20.60;46.60;;;;;;4998282;28;20223;-73
2023/05/25 05:04:45;;;;;;;2.90;2.30;;;20.60;46.60;;;;;;5001918;28;20967;-69
2023/05/25 05:07:10;;;;;;;3.20;2.60;;;20.60;46.60;;;;;;5006246;28;20218;-71
2023/05/25 05:09:36;;;;;;;2.20;2.00;;;20.60;46.60;;;;;;4999548;28;20247;-73
2023/05/25 05:12:02;;;;;;;2.70;2.50;;;20.60;46.60;;;;;;5009689;28;20601;-71
2023/05/25 05:14:28;;;;;;;2.10;2.00;;;20.60;46.60;;;;;;5005304;28;20230;-74
2023/05/25 05:16:54;;;;;;;2.97;2.77;;;20.60;46.60;;;;;;5001021;28;20484;-70
2023/05/25 05:19:19;;;;;;;2.63;2.43;;;20.60;46.60;;;;;;5006424;28;20733;-73
2023/05/25 05:21:45;;;;;;;3.07;2.50;;;20.60;46.60;;;;;;4999238;28;20234;-73
2023/05/25 05:24:10;;;;;;;2.83;2.50;;;20.60;46.40;;;;;;5000431;28;22251;-71
2023/05/25 05:26:38;;;;;;;2.50;2.30;;;20.60;46.30;;;;;;5000966;28;21142;-72
2023/05/25 05:29:04;;;;;;;2.77;2.57;;;20.60;46.30;;;;;;5005076;28;20581;-72
2023/05/25 05:31:30;;;;;;;3.50;2.80;;;20.70;46.40;;;;;;4999007;28;20460;-69
2023/05/25 05:33:56;;;;;;;2.60;2.40;;;20.60;46.30;;;;;;5000851;28;20223;-74
2023/05/25 05:36:22;;;;;;;2.73;2.30;;;20.60;46.30;;;;;;4999962;28;20466;-74
2023/05/25 05:38:47;;;;;;;2.70;2.50;;;20.60;46.40;;;;;;4997962;28;20314;-73
2023/05/25 05:41:13;;;;;;;4.23;2.20;;;20.60;46.40;;;;;;5008628;28;20301;-72
2023/05/25 05:43:42;;;;;;;2.33;2.13;;;20.60;46.40;;;;;;5000607;28;20242;-74
2023/05/25 05:46:09;;;;;;;2.60;2.40;;;20.60;46.50;;;;;;4993546;28;20737;-73
2023/05/25 05:48:36;;;;;;;2.60;2.40;;;20.60;46.40;;;;;;5008620;28;20416;-73
2023/05/25 05:51:05;;;;;;;2.70;2.47;;;20.60;46.40;;;;;;4999401;28;20515;-72
2023/05/25 05:53:31;;;;;;;2.30;2.10;;;20.60;46.50;;;;;;5010055;28;20472;-73
2023/05/25 05:55:58;;;;;;;4.00;2.33;;;20.60;46.50;;;;;;4996742;28;20819;-73
2023/05/25 05:58:28;;;;;;;2.90;2.70;;;20.60;46.50;;;;;;5003507;28;20451;-72
2023/05/25 06:00:54;;;;;;;2.40;2.20;;;20.60;46.40;;;;;;5009780;28;20985;-73
2023/05/25 06:03:21;;;;;;;2.83;2.63;;;20.60;46.50;;;;;;5007911;28;20543;-71
2023/05/25 06:05:46;;;;;;;2.13;2.03;;;20.60;46.50;;;;;;5006258;28;20460;-73
2023/05/25 06:08:12;;;;;;;2.40;2.20;;;20.60;46.50;;;;;;5006250;28;20442;-73
2023/05/25 06:10:38;;;;;;;2.90;2.43;;;20.60;46.40;;;;;;5011201;28;20226;-71
2023/05/25 06:13:06;;;;;;;2.47;2.37;;;20.60;47.30;;;;;;5009914;28;20775;-69
2023/05/25 06:15:31;;;;;;;2.60;2.40;;;20.60;46.50;;;;;;4999672;28;20319;-72
2023/05/25 06:17:57;;;;;;;3.53;2.53;;;20.60;46.40;;;;;;5012113;28;20468;-72
2023/05/25 06:20:22;;;;;;;2.77;2.40;;;20.60;46.50;;;;;;4992737;28;22145;-73
2023/05/25 06:22:48;;;;;;;3.77;2.63;;;20.60;46.50;;;;;;4999306;28;20237;-73
2023/05/25 06:25:15;;;;;;;4.80;2.30;;;20.60;46.50;;;;;;4996418;28;20226;-72
2023/05/25 06:27:40;;;;;;;2.10;2.00;;;20.60;46.50;;;;;;5002210;28;20633;-72
2023/05/25 06:30:07;;;;;;;2.80;2.07;;;20.60;46.50;;;;;;5002438;28;20469;-72
2023/05/25 06:32:33;;;;;;;3.20;2.40;;;20.60;46.50;;;;;;5001371;28;20866;-73
2023/05/25 06:34:58;;;;;;;2.00;1.90;;;20.60;46.50;;;;;;5011063;28;20574;-71
2023/05/25 06:37:24;;;;;;;2.27;2.17;;;20.70;46.60;;;;;;4994667;28;20536;-69
2023/05/25 06:39:50;;;;;;;2.23;2.13;;;20.60;46.50;;;;;;5013304;28;20948;-73
2023/05/25 06:42:15;;;;;;;2.70;2.50;;;20.60;46.50;;;;;;4999381;28;20311;-72
2023/05/25 06:44:41;;;;;;;2.80;2.60;;;20.60;46.50;;;;;;5004962;28;20627;-73
2023/05/25 06:47:06;;;;;;;2.17;2.07;;;20.60;46.50;;;;;;5002880;28;20267;-69
2023/05/25 06:49:32;;;;;;;2.50;2.30;;;20.60;46.50;;;;;;4989809;28;20317;-70
2023/05/25 06:51:57;;;;;;;1.90;1.80;;;20.60;46.40;;;;;;4997695;28;20238;-73
2023/05/25 06:54:23;;;;;;;2.30;2.20;;;20.60;46.50;;;;;;4997298;28;20754;-71
2023/05/25 06:56:48;;;;;;;2.40;2.20;;;20.60;46.40;;;;;;4993913;28;20235;-73
2023/05/25 06:59:14;;;;;;;2.57;1.90;;;20.60;46.50;;;;;;5000743;28;20226;-72
2023/05/25 07:01:39;;;;;;;2.57;2.37;;;20.60;46.50;;;;;;5001002;28;20220;-71
2023/05/25 07:04:05;;;;;;;2.50;2.30;;;20.70;46.60;;;;;;5003784;28;20649;-72
2023/05/25 07:06:31;;;;;;;2.70;2.53;;;20.60;46.50;;;;;;5006825;28;22168;-70
2023/05/25 07:08:57;;;;;;;2.47;2.27;;;20.70;46.50;;;;;;5012449;28;20548;-73
2023/05/25 07:11:23;;;;;;;2.47;2.30;;;20.60;46.50;;;;;;5014598;28;20444;-73
2023/05/25 07:13:48;;;;;;;3.00;2.67;;;20.60;46.40;;;;;;5012034;28;20270;-73
2023/05/25 07:16:14;;;;;;;2.53;2.43;;;20.60;46.50;;;;;;5011166;28;20669;-73
2023/05/25 07:18:40;;;;;;;2.57;2.33;;;20.70;46.60;;;;;;5011411;28;20228;-72
2023/05/25 07:21:08;;;;;;;2.20;2.10;;;20.70;46.50;;;;;;5009805;28;20717;-72
2023/05/25 07:23:37;;;;;;;2.27;2.17;;;20.70;46.50;;;;;;5007160;28;20490;-73
2023/05/25 07:26:02;;;;;;;2.33;2.23;;;20.70;46.50;;;;;;5004696;28;20972;-71
2023/05/25 07:28:28;;;;;;;2.30;2.10;;;20.70;46.50;;;;;;5039984;28;20451;-70
2023/05/25 07:30:53;;;;;;;2.10;2.00;;;20.70;46.50;;;;;;4995437;28;20227;-72
2023/05/25 07:33:19;;;;;;;2.30;2.20;;;20.70;46.60;;;;;;5011117;28;20238;-72
2023/05/25 07:35:45;;;;;;;2.00;1.90;;;20.70;46.50;;;;;;5011319;28;20231;-70
2023/05/25 07:38:10;;;;;;;2.40;2.30;;;20.60;46.40;;;;;;5009254;28;20228;-72
2023/05/25 07:40:36;;;;;;;2.90;1.90;;;20.70;46.60;;;;;;4999179;28;20242;-71
2023/05/25 07:43:01;;;;;;;3.00;2.10;;;20.70;46.50;;;;;;4996875;28;20740;-73
2023/05/25 07:45:27;;;;;;;3.00;2.10;;;20.70;46.50;;;;;;5002244;28;20254;-72
2023/05/25 07:47:53;;;;;;;2.10;2.00;;;20.70;46.50;;;;;;5007851;28;20266;-73
2023/05/25 07:50:18;;;;;;;2.27;2.07;;;20.60;46.40;;;;;;4998093;28;20224;-72
2023/05/25 07:52:45;;;;;;;2.37;2.27;;;20.70;46.50;;;;;;4998401;28;20306;-69
2023/05/25 07:55:10;;;;;;;2.57;2.27;;;20.70;46.70;;;;;;5003458;28;20762;-73
2023/05/25 07:57:36;;;;;;;2.10;2.00;;;20.70;46.50;;;;;;4997604;28;20467;-72
2023/05/25 08:00:05;;;;;;;2.30;2.10;;;20.60;46.40;;;;;;5012144;28;20222;-72
2023/05/25 08:02:30;;;;;;;2.37;2.27;;;20.70;46.50;;;;;;5000766;28;20881;-72
2023/05/25 08:04:56;;;;;;;2.17;2.03;;;20.70;46.50;;;;;;5004252;28;20559;-73
2023/05/25 08:07:23;;;;;;;1.90;1.80;;;20.70;46.50;;;;;;4999617;28;20223;-73
2023/05/25 08:09:49;;;;;;;2.10;2.00;;;20.70;46.50;;;;;;5000660;28;20256;-72
2023/05/25 08:12:14;;;;;;;2.17;2.07;;;20.70;46.50;;;;;;4997211;28;20465;-68
2023/05/25 08:14:40;;;;;;;2.27;2.17;;;20.70;46.60;;;;;;4996250;28;20234;-72
2023/05/25 08:17:06;;;;;;;2.53;2.40;;;20.70;46.50;;;;;;4995625;28;20709;-73
2023/05/25 08:19:31;;;;;;;2.60;2.00;;;20.70;46.50;;;;;;5012240;28;20233;-70
2023/05/25 08:21:57;;;;;;;2.20;2.10;;;20.70;46.50;;;;;;5006786;28;20686;-71
2023/05/25 08:24:23;;;;;;;2.07;1.97;;;20.70;46.50;;;;;;4993767;28;20241;-70
2023/05/25 08:26:48;;;;;;;2.23;2.13;;;20.70;46.60;;;;;;4993935;28;21005;-73
2023/05/25 08:29:14;;;;;;;2.17;2.07;;;20.70;46.50;;;;;;5001429;28;20666;-70
2023/05/25 08:31:46;;;;;;;2.40;2.30;;;20.70;46.50;;;;;;5005112;28;20223;-73
2023/05/25 08:34:11;;;;;;;2.20;2.00;;;20.70;46.50;;;;;;5015492;28;20669;-73
2023/05/25 08:36:37;;;;;;;2.27;2.07;;;20.70;46.50;;;;;;5007545;28;20490;-72
2023/05/25 08:39:03;;;;;;;2.10;1.90;;;20.70;46.50;;;;;;5009975;28;20270;-72
2023/05/25 08:41:29;;;;;;;2.20;2.00;;;20.70;46.50;;;;;;4996946;28;20227;-69
2023/05/25 08:43:55;;;;;;;2.10;2.00;;;20.70;46.50;;;;;;4997662;28;20459;-72
2023/05/25 08:46:30;;;;;;;2.20;2.10;;;20.70;46.50;;;;;;5007031;28;20225;-73
2023/05/25 08:49:02;;;;;;;2.27;2.10;;;20.70;46.50;;;;;;5007862;28;20218;-72
2023/05/25 08:51:35;;;;;;;2.17;2.07;;;20.70;46.50;;;;;;5011066;28;21014;-72
2023/05/25 08:54:06;;;;;;;2.47;2.23;;;20.70;46.50;;;;;;5013033;28;20439;-73
2023/05/25 08:56:35;;;;;;;2.50;2.30;;;20.70;46.50;;;;;;4992818;28;20419;-69
2023/05/25 08:59:11;;;;;;;2.70;2.50;;;20.70;46.50;;;;;;4989250;28;21030;-72
2023/05/25 09:01:42;;;;;;;2.10;2.00;;;20.70;46.60;;;;;;4994079;28;21092;-72
2023/05/25 09:04:08;;;;;;;2.20;2.00;;;20.70;46.50;;;;;;4998579;28;20423;-72
2023/05/25 09:06:35;;;;;;;2.23;2.13;;;20.70;46.50;;;;;;5004476;28;20420;-72
2023/05/25 09:09:03;;;;;;;2.40;2.30;;;20.70;47.00;;;;;;5002403;28;20443;-70
2023/05/25 09:11:29;;;;;;;2.30;2.20;;;20.70;46.50;;;;;;5003088;28;21041;-70
2023/05/25 09:13:55;;;;;;;2.30;2.10;;;20.70;46.50;;;;;;4993566;28;20465;-72
2023/05/25 09:16:22;;;;;;;2.40;2.30;;;20.70;46.50;;;;;;4997800;28;20312;-72
2023/05/25 09:18:49;;;;;;;2.63;2.10;;;20.70;46.50;;;;;;4999168;28;20465;-72
2023/05/25 09:21:14;;;;;;;2.40;2.30;;;20.70;46.50;;;;;;4998669;28;20463;-71
2023/05/25 09:23:41;;;;;;;2.37;2.23;;;20.70;46.50;;;;;;5013082;28;21094;-71
2023/05/25 09:26:07;;;;;;;2.00;1.90;;;20.70;46.50;;;;;;4992946;28;20226;-69
2023/05/25 09:28:33;;;;;;;2.70;2.50;;;20.70;46.40;;;;;;4990032;28;20476;-72
2023/05/25 09:30:59;;;;;;;2.40;2.30;;;20.70;46.40;;;;;;4990457;28;21765;-70
2023/05/25 09:33:25;;;;;;;2.00;1.90;;;20.70;46.50;;;;;;4997137;28;20441;-71
2023/05/25 09:35:51;;;;;;;2.30;2.20;;;20.70;46.50;;;;;;5004628;28;20220;-70
2023/05/25 09:38:17;;;;;;;2.53;2.33;;;20.70;46.40;;;;;;5039515;28;20226;-71
2023/05/25 09:40:43;;;;;;;2.80;2.70;;;20.70;46.40;;;;;;5010576;28;20227;-71
2023/05/25 09:43:11;;;;;;;2.70;2.27;;;20.70;46.40;;;;;;5001781;28;20443;-71
2023/05/25 09:45:37;;;;;;;2.60;2.40;;;20.70;46.40;;;;;;4995992;28;20492;-73
2023/05/25 09:48:05;;;;;;;2.20;2.10;;;20.70;46.40;;;;;;4995976;28;20525;-71
2023/05/25 09:50:31;;;;;;;2.50;2.40;;;20.70;46.50;;;;;;4995897;28;20314;-73
2023/05/25 09:53:01;;;;;;;2.70;2.60;;;20.70;46.40;;;;;;5005773;28;20853;-73
2023/05/25 09:55:27;;;;;;;2.70;2.60;;;20.70;46.30;;;;;;5005644;28;21032;-73
2023/05/25 09:57:55;;;;;;;2.87;2.77;;;20.70;46.40;;;;;;5008253;28;20576;-73
2023/05/25 10:00:25;;;;;;;2.60;2.50;;;20.70;46.50;;;;;;5008624;28;20892;-69
2023/05/25 10:02:51;;;;;;;2.40;2.30;;;20.70;46.30;;;;;;4997396;28;22108;-73
2023/05/25 10:05:16;;;;;;;2.80;2.60;;;20.80;46.50;;;;;;5003346;28;21074;-73
2023/05/25 10:07:45;;;;;;;2.80;2.60;;;20.70;46.40;;;;;;4992724;28;20573;-69
2023/05/25 10:10:14;;;;;;;2.60;2.50;;;20.70;46.40;;;;;;4996780;28;20227;-72
2023/05/25 10:12:44;;;;;;;2.90;2.70;;;20.70;46.40;;;;;;5004194;28;20434;-73
2023/05/25 10:15:12;;;;;;;4.37;3.03;;;20.70;46.40;;;;;;5005988;28;20455;-72
2023/05/25 10:17:44;;;;;;;2.90;2.80;;;20.70;46.40;;;;;;5010595;28;20884;-74
2023/05/25 10:20:12;;;;;;;3.40;3.20;;;20.70;46.40;;;;;;5009192;28;20822;-73
2023/05/25 10:22:50;;;;;;;3.17;3.03;;;20.70;46.40;;;;;;5004893;28;20515;-73
2023/05/25 10:25:25;;;;;;;3.30;3.13;;;20.70;46.40;;;;;;4998593;28;20431;-71
2023/05/25 10:28:00;;;;;;;3.20;3.00;;;20.70;46.40;;;;;;4987366;28;20636;-73
2023/05/25 10:30:26;;;;;;;2.90;2.80;;;20.70;46.40;;;;;;5003653;28;20441;-73
2023/05/25 10:32:54;;;;;;;3.87;3.57;;;20.70;46.40;;;;;;5007492;28;20792;-72
2023/05/25 10:35:21;;;;;;;3.10;2.90;;;20.70;46.40;;;;;;5007308;28;21543;-71
2023/05/25 10:37:49;;;;;;;3.27;3.07;;;20.70;46.40;;;;;;5013249;28;20463;-72
2023/05/25 10:40:15;;;;;;;3.30;3.10;;;20.70;46.40;;;;;;5005911;28;20461;-70
2023/05/25 10:42:41;;;;;;;3.60;3.30;;;20.70;46.50;;;;;;5002576;28;20456;-71
2023/05/25 10:45:08;;;;;;;3.70;3.50;;;20.70;46.40;;;;;;5002369;28;20664;-73
2023/05/25 10:47:42;;;;;;;3.50;3.30;;;20.70;46.30;;;;;;5013506;28;20477;-70
2023/05/25 10:50:18;;;;;;;3.57;3.37;;;20.80;46.50;;;;;;5009987;28;20434;-72
2023/05/25 10:52:44;;;;;;;3.37;3.17;;;20.80;46.50;;;;;;5013086;28;21030;-71
2023/05/25 10:55:10;;;;;;;3.80;3.60;;;20.80;46.50;;;;;;5000394;28;20567;-72
2023/05/25 10:57:36;;;;;;;3.40;3.20;;;20.70;46.30;;;;;;4995735;28;20312;-71
2023/05/25 11:00:05;;;;;;;3.70;3.50;;;20.80;46.50;;;;;;5009228;28;20492;-72
2023/05/25 11:02:54;;;;;;;4.13;3.93;;;20.80;46.50;;;;;;4998855;28;20261;-72
2023/05/25 11:05:26;;;;;;;3.77;3.57;;;20.80;46.50;;;;;;5002701;28;20553;-72
2023/05/25 11:07:52;;;;;;;3.70;3.50;;;20.80;46.50;;;;;;5007137;28;20439;-72
2023/05/25 11:10:41;;;;;;;3.70;3.50;;;20.80;46.50;;;;;;5016632;28;21042;-72
2023/05/25 11:13:36;;;;;;;3.40;3.20;;;20.80;46.50;;;;;;5009877;28;20422;-71
2023/05/25 11:16:20;;;;;;;4.27;4.07;;;20.80;46.50;;;;;;4997855;28;20444;-71
2023/05/25 11:18:49;;;;;;;3.40;3.20;;;20.80;46.50;;;;;;5005545;28;20525;-72
2023/05/25 11:21:20;;;;;;;3.40;3.20;;;20.70;46.40;;;;;;5011045;28;20808;-71
2023/05/25 11:23:57;;;;;;;3.43;3.23;;;20.80;46.50;;;;;;5011119;28;20855;-71
2023/05/25 11:26:28;;;;;;;3.73;3.53;;;20.80;46.50;;;;;;5000584;28;20539;-72
2023/05/25 11:28:57;;;;;;;4.60;4.20;;;20.80;46.60;;;;;;5002862;28;20461;-72
2023/05/25 11:31:33;;;;;;;3.60;3.40;;;20.80;46.50;;;;;;4999988;28;20980;-71
2023/05/25 11:34:00;;;;;;;4.07;3.83;;;20.80;46.50;;;;;;5003539;28;20463;-72
2023/05/25 11:36:30;;;;;;;4.20;3.90;;;20.80;46.50;;;;;;4992543;28;20552;-72
2023/05/25 11:38:56;;;;;;;4.00;3.80;;;20.80;46.50;;;;;;5003755;28;20464;-69
2023/05/25 11:41:22;;;;;;;3.73;3.53;;;20.80;46.50;;;;;;5011244;28;20460;-70
2023/05/25 11:43:49;;;;;;;3.50;3.30;;;20.80;46.50;;;;;;5019175;28;21079;-72
2023/05/25 11:46:18;;;;;;;4.47;4.27;;;20.80;46.50;;;;;;5012580;28;20588;-69
2023/05/25 11:48:51;;;;;;;3.50;3.30;;;20.80;46.50;;;;;;5013695;28;20539;-71
2023/05/25 11:51:21;;;;;;;3.90;3.70;;;20.80;46.50;;;;;;4997309;28;20468;-72
2023/05/25 11:53:47;;;;;;;4.10;3.80;;;20.80;46.40;;;;;;5010492;28;20485;-72
2023/05/25 11:56:14;;;;;;;4.20;3.90;;;20.80;46.50;;;;;;5005933;28;20551;-73
2023/05/25 11:58:40;;;;;;;3.47;3.30;;;20.80;46.50;;;;;;4998465;28;20231;-70
2023/05/25 12:01:19;;;;;;;4.03;3.83;;;20.80;46.50;;;;;;5007964;28;20444;-72
2023/05/25 12:03:46;;;;;;;3.83;3.63;;;20.80;46.40;;;;;;5001468;28;21185;-71
2023/05/25 12:06:38;;;;;;;3.77;3.57;;;20.80;46.40;;;;;;5010874;28;20454;-72
2023/05/25 12:09:10;;;;;;;3.93;3.73;;;20.80;46.40;;;;;;5005233;28;20486;-70
2023/05/25 12:11:37;;;;;;;3.67;3.53;;;20.80;46.50;;;;;;5007285;28;20453;-72
2023/05/25 12:14:04;;;;;;;4.17;3.97;;;20.80;46.50;;;;;;5013419;28;21131;-69
2023/05/25 12:16:37;;;;;;;3.80;3.60;;;20.80;46.50;;;;;;5004642;28;21002;-69
2023/05/25 12:19:03;;;;;;;3.80;3.60;;;20.80;46.50;;;;;;5010140;28;20936;-70
2023/05/25 12:21:30;;;;;;;3.87;3.67;;;20.80;46.50;;;;;;5017231;28;20442;-72
2023/05/25 12:23:56;;;;;;;4.10;3.90;;;20.80;46.50;;;;;;5021603;28;20610;-72
2023/05/25 12:26:22;;;;;;;3.73;3.53;;;20.80;46.40;;;;;;5011612;28;21467;-73
2023/05/25 12:29:17;;;;;;;4.00;3.80;;;20.80;46.40;;;;;;5010829;28;20226;-72
2023/05/25 12:31:42;;;;;;;4.33;4.13;;;20.80;46.40;;;;;;4995837;28;20312;-69
2023/05/25 12:34:10;;;;;;;4.00;3.80;;;20.80;46.40;;;;;;5012182;28;20556;-72
2023/05/25 12:36:45;;;;;;;4.00;3.70;;;20.80;46.50;;;;;;5011320;28;20683;-72
2023/05/25 12:39:13;;;;;;;4.17;3.97;;;20.80;46.50;;;;;;5015977;28;20939;-72
2023/05/25 12:41:50;;;;;;;4.47;4.27;;;20.80;46.40;;;;;;5030226;28;21006;-71
2023/05/25 12:44:26;;;;;;;3.80;3.60;;;20.80;46.50;;;;;;5013048;28;20449;-69
2023/05/25 12:46:53;;;;;;;3.70;3.50;;;20.80;46.40;;;;;;5013201;28;21544;-72
2023/05/25 12:49:24;;;;;;;3.90;3.60;;;20.80;46.40;;;;;;5005153;28;20445;-71